sensor_id;sensor_type;location;lat;lon;timestamp;pressure;altitude;pressure_sealevel;temperature;humidity
36248;BME280;22287;50.824;5.644;2023-01-29T00:01:51;102280.56;;;-0.16;68.59
36248;BME280;22287;50.824;5.644;2023-01-29T00:04:19;102275.44;;;-0.26;68.65
36248;BME280;22287;50.824;5.644;2023-01-29T00:06:59;102268.41;;;-0.29;69.06
36248;BME280;22287;50.824;5.644;2023-01-29T00:09:40;102271.13;;;-0.35;69.75
36248;BME280;22287;50.824;5.644;2023-01-29T00:12:07;102264.53;;;-0.10;68.65
36248;BME280;22287;50.824;5.644;2023-01-29T00:14:36;102264.34;;;0.03;68.44
36248;BME280;22287;50.824;5.644;2023-01-29T00:17:03;102260.97;;;-0.09;68.08
36248;BME280;22287;50.824;5.644;2023-01-29T00:19:30;102253.81;;;-0.05;68.38
36248;BME280;22287;50.824;5.644;2023-01-29T00:21:57;102251.84;;;0.06;68.05
36248;BME280;22287;50.824;5.644;2023-01-29T00:24:24;102261.78;;;-0.05;68.23
36248;BME280;22287;50.824;5.644;2023-01-29T00:26:51;102255.03;;;-0.23;69.02
36248;BME280;22287;50.824;5.644;2023-01-29T00:29:17;102256.78;;;-0.25;68.81
36248;BME280;22287;50.824;5.644;2023-01-29T00:31:44;102256.09;;;-0.34;69.20
36248;BME280;22287;50.824;5.644;2023-01-29T00:34:11;102251.88;;;-0.49;69.19
36248;BME280;22287;50.824;5.644;2023-01-29T00:36:38;102245.88;;;-0.62;69.64
36248;BME280;22287;50.824;5.644;2023-01-29T00:39:05;102254.03;;;-0.19;68.67
36248;BME280;22287;50.824;5.644;2023-01-29T00:41:36;102246.13;;;-0.22;68.31
36248;BME280;22287;50.824;5.644;2023-01-29T00:44:21;102233.66;;;-0.17;67.98
36248;BME280;22287;50.824;5.644;2023-01-29T00:47:10;102226.50;;;-0.12;68.06
36248;BME280;22287;50.824;5.644;2023-01-29T00:49:56;102225.66;;;-0.15;68.85
36248;BME280;22287;50.824;5.644;2023-01-29T00:52:23;102223.38;;;-0.36;68.72
36248;BME280;22287;50.824;5.644;2023-01-29T00:54:55;102228.13;;;-0.05;67.65
36248;BME280;22287;50.824;5.644;2023-01-29T00:57:24;102223.78;;;-0.09;67.31
36248;BME280;22287;50.824;5.644;2023-01-29T00:59:52;102220.72;;;-0.36;68.70
36248;BME280;22287;50.824;5.644;2023-01-29T01:02:19;102223.50;;;-0.47;68.68
36248;BME280;22287;50.824;5.644;2023-01-29T01:05:06;102235.75;;;0.15;67.40
36248;BME280;22287;50.824;5.644;2023-01-29T01:07:39;102229.28;;;0.28;67.29
36248;BME280;22287;50.824;5.644;2023-01-29T01:10:11;102239.22;;;0.19;66.36
36248;BME280;22287;50.824;5.644;2023-01-29T01:15:16;102240.81;;;0.29;65.38
36248;BME280;22287;50.824;5.644;2023-01-29T01:17:43;102245.50;;;0.15;65.79
36248;BME280;22287;50.824;5.644;2023-01-29T01:20:11;102228.13;;;-0.05;66.56
36248;BME280;22287;50.824;5.644;2023-01-29T01:22:39;102234.97;;;0.10;66.61
36248;BME280;22287;50.824;5.644;2023-01-29T01:25:06;102233.13;;;0.12;66.09
36248;BME280;22287;50.824;5.644;2023-01-29T01:27:33;102231.47;;;0.07;65.92
36248;BME280;22287;50.824;5.644;2023-01-29T01:30:00;102232.25;;;-0.39;67.54
36248;BME280;22287;50.824;5.644;2023-01-29T01:32:27;102231.16;;;-0.27;67.68
36248;BME280;22287;50.824;5.644;2023-01-29T01:34:54;102233.84;;;-0.29;67.11
36248;BME280;22287;50.824;5.644;2023-01-29T01:37:21;102217.09;;;-0.31;67.49
36248;BME280;22287;50.824;5.644;2023-01-29T01:39:48;102218.53;;;-0.13;67.13
36248;BME280;22287;50.824;5.644;2023-01-29T01:42:15;102211.19;;;0.03;67.18
36248;BME280;22287;50.824;5.644;2023-01-29T01:45:19;102209.66;;;-0.14;65.91
36248;BME280;22287;50.824;5.644;2023-01-29T01:50:41;102208.63;;;-0.04;66.00
36248;BME280;22287;50.824;5.644;2023-01-29T01:53:14;102207.69;;;-0.03;65.74
36248;BME280;22287;50.824;5.644;2023-01-29T01:56:01;102206.03;;;-0.07;66.30
36248;BME280;22287;50.824;5.644;2023-01-29T01:58:33;102213.16;;;-0.09;66.57
36248;BME280;22287;50.824;5.644;2023-01-29T02:01:03;102210.50;;;-0.09;66.51
36248;BME280;22287;50.824;5.644;2023-01-29T02:03:40;102223.22;;;-0.29;66.68
36248;BME280;22287;50.824;5.644;2023-01-29T02:06:28;102223.03;;;-0.17;66.82
36248;BME280;22287;50.824;5.644;2023-01-29T02:09:18;102230.41;;;-0.34;66.56
36248;BME280;22287;50.824;5.644;2023-01-29T02:12:07;102224.06;;;-0.27;66.15
36248;BME280;22287;50.824;5.644;2023-01-29T02:14:38;102221.41;;;-0.27;66.52
36248;BME280;22287;50.824;5.644;2023-01-29T02:17:07;102223.19;;;-0.26;66.15
36248;BME280;22287;50.824;5.644;2023-01-29T02:28:15;102234.50;;;-0.15;65.90
36248;BME280;22287;50.824;5.644;2023-01-29T02:36:31;102248.00;;;0.22;65.27
36248;BME280;22287;50.824;5.644;2023-01-29T02:39:43;102244.13;;;-0.08;64.97
36248;BME280;22287;50.824;5.644;2023-01-29T02:47:56;102248.72;;;-0.72;65.96
36248;BME280;22287;50.824;5.644;2023-01-29T02:50:48;102248.19;;;-0.39;66.34
36248;BME280;22287;50.824;5.644;2023-01-29T02:53:25;102246.56;;;-0.49;66.46
36248;BME280;22287;50.824;5.644;2023-01-29T02:56:04;102249.09;;;-0.41;66.30
36248;BME280;22287;50.824;5.644;2023-01-29T02:58:50;102253.34;;;-0.30;66.49
36248;BME280;22287;50.824;5.644;2023-01-29T03:01:28;102261.19;;;-0.21;65.90
36248;BME280;22287;50.824;5.644;2023-01-29T03:04:05;102258.75;;;-0.36;65.70
36248;BME280;22287;50.824;5.644;2023-01-29T03:06:47;102268.75;;;-0.51;65.53
36248;BME280;22287;50.824;5.644;2023-01-29T03:09:21;102262.59;;;-0.53;65.98
36248;BME280;22287;50.824;5.644;2023-01-29T03:11:53;102252.94;;;-0.59;66.18
36248;BME280;22287;50.824;5.644;2023-01-29T03:14:34;102252.69;;;-0.44;65.92
36248;BME280;22287;50.824;5.644;2023-01-29T03:17:25;102258.63;;;-0.27;65.01
36248;BME280;22287;50.824;5.644;2023-01-29T03:19:55;102246.63;;;-0.52;65.49
36248;BME280;22287;50.824;5.644;2023-01-29T03:22:23;102245.16;;;-0.16;66.37
36248;BME280;22287;50.824;5.644;2023-01-29T03:24:56;102239.19;;;-0.30;66.06
36248;BME280;22287;50.824;5.644;2023-01-29T03:27:50;102247.78;;;-0.15;66.74
36248;BME280;22287;50.824;5.644;2023-01-29T03:30:43;102258.53;;;-0.21;65.99
36248;BME280;22287;50.824;5.644;2023-01-29T03:33:44;102255.16;;;-0.32;66.11
36248;BME280;22287;50.824;5.644;2023-01-29T03:36:35;102255.63;;;-0.06;65.79
36248;BME280;22287;50.824;5.644;2023-01-29T03:39:12;102265.56;;;-0.17;65.33
36248;BME280;22287;50.824;5.644;2023-01-29T03:44:52;102266.72;;;-0.34;65.83
36248;BME280;22287;50.824;5.644;2023-01-29T04:00:52;102251.66;;;-0.34;66.10
36248;BME280;22287;50.824;5.644;2023-01-29T04:06:06;102241.78;;;-0.26;65.70
36248;BME280;22287;50.824;5.644;2023-01-29T04:09:02;102242.47;;;-0.15;65.90
36248;BME280;22287;50.824;5.644;2023-01-29T04:11:33;102240.16;;;-0.34;65.25
36248;BME280;22287;50.824;5.644;2023-01-29T04:14:01;102234.13;;;-0.45;65.72
36248;BME280;22287;50.824;5.644;2023-01-29T04:16:36;102227.84;;;-0.40;65.19
36248;BME280;22287;50.824;5.644;2023-01-29T04:19:35;102223.22;;;-0.29;65.03
36248;BME280;22287;50.824;5.644;2023-01-29T04:22:09;102224.16;;;-0.33;65.17
36248;BME280;22287;50.824;5.644;2023-01-29T04:24:40;102220.50;;;-0.24;64.80
36248;BME280;22287;50.824;5.644;2023-01-29T04:37:12;102198.63;;;-0.40;65.64
36248;BME280;22287;50.824;5.644;2023-01-29T04:40:13;102191.59;;;-0.42;66.44
36248;BME280;22287;50.824;5.644;2023-01-29T04:43:08;102185.50;;;-0.49;66.44
36248;BME280;22287;50.824;5.644;2023-01-29T05:00:23;102170.25;;;-0.38;67.40
36248;BME280;22287;50.824;5.644;2023-01-29T05:03:07;102176.91;;;-0.13;66.69
36248;BME280;22287;50.824;5.644;2023-01-29T05:05:41;102178.97;;;-0.30;67.01
36248;BME280;22287;50.824;5.644;2023-01-29T05:08:11;102179.00;;;-0.33;66.23
36248;BME280;22287;50.824;5.644;2023-01-29T05:10:39;102182.75;;;-0.43;66.19
36248;BME280;22287;50.824;5.644;2023-01-29T05:13:10;102167.63;;;-0.39;66.04
36248;BME280;22287;50.824;5.644;2023-01-29T05:15:43;102159.56;;;-0.33;66.60
36248;BME280;22287;50.824;5.644;2023-01-29T05:18:18;102169.50;;;-0.46;67.74
36248;BME280;22287;50.824;5.644;2023-01-29T05:20:45;102175.78;;;-0.50;67.87
36248;BME280;22287;50.824;5.644;2023-01-29T05:23:17;102171.91;;;-0.31;66.97
36248;BME280;22287;50.824;5.644;2023-01-29T05:25:44;102188.59;;;-0.24;66.17
36248;BME280;22287;50.824;5.644;2023-01-29T05:28:12;102180.34;;;-0.08;66.18
36248;BME280;22287;50.824;5.644;2023-01-29T05:30:50;102184.03;;;-0.15;66.26
36248;BME280;22287;50.824;5.644;2023-01-29T05:33:28;102187.78;;;0.21;65.22
36248;BME280;22287;50.824;5.644;2023-01-29T05:35:57;102177.63;;;-0.03;65.84
36248;BME280;22287;50.824;5.644;2023-01-29T05:38:24;102182.06;;;-0.04;66.34
36248;BME280;22287;50.824;5.644;2023-01-29T05:41:05;102178.34;;;0.05;66.03
36248;BME280;22287;50.824;5.644;2023-01-29T05:43:32;102174.53;;;-0.29;66.27
36248;BME280;22287;50.824;5.644;2023-01-29T05:46:01;102189.00;;;0.04;65.96
36248;BME280;22287;50.824;5.644;2023-01-29T05:48:28;102185.75;;;-0.12;66.26
36248;BME280;22287;50.824;5.644;2023-01-29T05:51:01;102187.53;;;-0.13;66.75
36248;BME280;22287;50.824;5.644;2023-01-29T05:53:29;102189.34;;;-0.16;66.46
36248;BME280;22287;50.824;5.644;2023-01-29T05:55:56;102187.38;;;-0.05;66.45
36248;BME280;22287;50.824;5.644;2023-01-29T05:58:26;102190.19;;;-0.11;66.60
36248;BME280;22287;50.824;5.644;2023-01-29T06:00:53;102179.34;;;-0.02;65.93
36248;BME280;22287;50.824;5.644;2023-01-29T06:03:19;102181.53;;;-0.24;65.62
36248;BME280;22287;50.824;5.644;2023-01-29T06:05:46;102180.28;;;-0.05;65.63
36248;BME280;22287;50.824;5.644;2023-01-29T06:08:13;102175.41;;;-0.29;65.94
36248;BME280;22287;50.824;5.644;2023-01-29T06:10:40;102168.28;;;-0.27;67.13
36248;BME280;22287;50.824;5.644;2023-01-29T06:13:06;102170.75;;;-0.16;67.08
36248;BME280;22287;50.824;5.644;2023-01-29T06:15:33;102167.72;;;0.05;66.60
36248;BME280;22287;50.824;5.644;2023-01-29T06:18:00;102160.31;;;-0.25;66.28
36248;BME280;22287;50.824;5.644;2023-01-29T06:20:26;102165.72;;;-0.33;66.78
36248;BME280;22287;50.824;5.644;2023-01-29T06:22:53;102168.53;;;-0.39;66.80
36248;BME280;22287;50.824;5.644;2023-01-29T06:25:20;102176.00;;;-0.12;66.35
36248;BME280;22287;50.824;5.644;2023-01-29T06:27:49;102190.59;;;0.14;65.81
36248;BME280;22287;50.824;5.644;2023-01-29T06:30:16;102194.31;;;0.05;66.18
36248;BME280;22287;50.824;5.644;2023-01-29T06:32:44;102190.03;;;-0.05;66.62
36248;BME280;22287;50.824;5.644;2023-01-29T06:35:11;102204.88;;;0.07;66.15
36248;BME280;22287;50.824;5.644;2023-01-29T06:37:37;102196.75;;;0.14;66.34
36248;BME280;22287;50.824;5.644;2023-01-29T06:40:05;102198.44;;;0.20;66.44
36248;BME280;22287;50.824;5.644;2023-01-29T06:42:34;102202.13;;;0.13;66.75
36248;BME280;22287;50.824;5.644;2023-01-29T06:45:01;102212.59;;;0.20;66.38
36248;BME280;22287;50.824;5.644;2023-01-29T06:47:28;102222.84;;;-0.08;66.85
36248;BME280;22287;50.824;5.644;2023-01-29T06:49:55;102229.78;;;0.03;67.39
36248;BME280;22287;50.824;5.644;2023-01-29T06:52:21;102236.88;;;0.02;66.90
36248;BME280;22287;50.824;5.644;2023-01-29T06:54:48;102242.25;;;-0.03;67.34
36248;BME280;22287;50.824;5.644;2023-01-29T06:57:15;102238.44;;;0.14;67.60
36248;BME280;22287;50.824;5.644;2023-01-29T06:59:42;102236.56;;;0.19;67.27
36248;BME280;22287;50.824;5.644;2023-01-29T07:02:08;102232.31;;;0.09;67.53
36248;BME280;22287;50.824;5.644;2023-01-29T07:04:35;102223.84;;;-0.12;69.04
36248;BME280;22287;50.824;5.644;2023-01-29T07:07:03;102232.56;;;-0.05;69.08
36248;BME280;22287;50.824;5.644;2023-01-29T07:09:30;102230.78;;;-0.03;68.83
36248;BME280;22287;50.824;5.644;2023-01-29T07:11:57;102232.88;;;-0.23;69.50
36248;BME280;22287;50.824;5.644;2023-01-29T07:14:24;102225.78;;;-0.23;70.19
36248;BME280;22287;50.824;5.644;2023-01-29T07:16:51;102211.50;;;-0.16;69.88
36248;BME280;22287;50.824;5.644;2023-01-29T07:19:18;102210.94;;;-0.36;71.19
36248;BME280;22287;50.824;5.644;2023-01-29T07:21:44;102202.81;;;-0.80;71.91
36248;BME280;22287;50.824;5.644;2023-01-29T07:24:14;102200.94;;;-0.74;71.78
36248;BME280;22287;50.824;5.644;2023-01-29T07:26:41;102202.53;;;-0.62;71.69
36248;BME280;22287;50.824;5.644;2023-01-29T07:29:08;102194.25;;;-0.44;71.64
36248;BME280;22287;50.824;5.644;2023-01-29T07:31:35;102199.75;;;-0.54;71.61
36248;BME280;22287;50.824;5.644;2023-01-29T07:34:02;102193.28;;;-0.37;71.88
36248;BME280;22287;50.824;5.644;2023-01-29T07:36:29;102198.31;;;-0.22;71.05
36248;BME280;22287;50.824;5.644;2023-01-29T07:38:56;102190.44;;;-0.26;71.57
36248;BME280;22287;50.824;5.644;2023-01-29T07:41:23;102191.59;;;-0.44;71.78
36248;BME280;22287;50.824;5.644;2023-01-29T07:43:50;102190.13;;;-0.10;71.20
36248;BME280;22287;50.824;5.644;2023-01-29T07:46:17;102178.41;;;0.00;70.78
36248;BME280;22287;50.824;5.644;2023-01-29T07:48:43;102175.00;;;0.40;69.96
36248;BME280;22287;50.824;5.644;2023-01-29T07:51:10;102182.75;;;0.06;71.15
36248;BME280;22287;50.824;5.644;2023-01-29T07:53:37;102192.16;;;-0.24;71.01
36248;BME280;22287;50.824;5.644;2023-01-29T07:56:04;102203.84;;;0.15;70.00
36248;BME280;22287;50.824;5.644;2023-01-29T07:58:31;102208.06;;;0.25;70.30
36248;BME280;22287;50.824;5.644;2023-01-29T08:01:04;102200.56;;;0.03;71.96
36248;BME280;22287;50.824;5.644;2023-01-29T08:03:32;102203.03;;;0.12;71.02
36248;BME280;22287;50.824;5.644;2023-01-29T08:05:59;102194.41;;;-0.03;71.37
36248;BME280;22287;50.824;5.644;2023-01-29T08:08:26;102194.75;;;0.27;70.89
36248;BME280;22287;50.824;5.644;2023-01-29T08:10:53;102188.97;;;0.05;72.27
36248;BME280;22287;50.824;5.644;2023-01-29T08:13:20;102194.34;;;0.48;69.90
36248;BME280;22287;50.824;5.644;2023-01-29T08:15:47;102196.91;;;0.08;71.20
36248;BME280;22287;50.824;5.644;2023-01-29T08:18:13;102196.38;;;0.34;69.92
36248;BME280;22287;50.824;5.644;2023-01-29T08:20:40;102197.75;;;0.54;70.24
36248;BME280;22287;50.824;5.644;2023-01-29T08:23:13;102203.03;;;0.56;69.61
36248;BME280;22287;50.824;5.644;2023-01-29T08:25:41;102201.50;;;0.44;70.45
36248;BME280;22287;50.824;5.644;2023-01-29T08:28:08;102193.16;;;0.61;69.89
36248;BME280;22287;50.824;5.644;2023-01-29T08:30:35;102180.97;;;0.52;69.89
36248;BME280;22287;50.824;5.644;2023-01-29T08:33:03;102179.72;;;0.26;70.29
36248;BME280;22287;50.824;5.644;2023-01-29T08:35:30;102187.84;;;0.18;71.12
36248;BME280;22287;50.824;5.644;2023-01-29T08:37:59;102192.50;;;0.51;71.35
36248;BME280;22287;50.824;5.644;2023-01-29T08:40:27;102194.25;;;0.52;70.76
36248;BME280;22287;50.824;5.644;2023-01-29T08:43:01;102191.63;;;0.51;70.44
36248;BME280;22287;50.824;5.644;2023-01-29T08:45:35;102191.25;;;0.68;69.53
36248;BME280;22287;50.824;5.644;2023-01-29T08:48:03;102208.41;;;0.53;70.38
36248;BME280;22287;50.824;5.644;2023-01-29T08:50:30;102195.38;;;0.41;71.23
36248;BME280;22287;50.824;5.644;2023-01-29T08:52:58;102196.25;;;0.41;71.67
36248;BME280;22287;50.824;5.644;2023-01-29T08:55:26;102194.81;;;0.68;69.93
36248;BME280;22287;50.824;5.644;2023-01-29T08:57:56;102203.25;;;0.88;69.31
36248;BME280;22287;50.824;5.644;2023-01-29T09:00:23;102200.63;;;0.44;70.21
36248;BME280;22287;50.824;5.644;2023-01-29T09:02:50;102203.50;;;0.76;70.01
36248;BME280;22287;50.824;5.644;2023-01-29T09:05:17;102198.66;;;0.95;69.59
36248;BME280;22287;50.824;5.644;2023-01-29T09:07:44;102200.97;;;0.70;70.16
36248;BME280;22287;50.824;5.644;2023-01-29T09:10:11;102206.94;;;0.81;69.49
36248;BME280;22287;50.824;5.644;2023-01-29T09:12:38;102196.63;;;0.66;69.98
36248;BME280;22287;50.824;5.644;2023-01-29T09:15:06;102193.97;;;0.66;69.91
36248;BME280;22287;50.824;5.644;2023-01-29T09:17:33;102181.09;;;0.86;69.28
36248;BME280;22287;50.824;5.644;2023-01-29T09:20:00;102176.19;;;0.67;70.20
36248;BME280;22287;50.824;5.644;2023-01-29T09:22:27;102173.72;;;0.59;70.70
36248;BME280;22287;50.824;5.644;2023-01-29T09:24:54;102171.06;;;0.59;70.71
36248;BME280;22287;50.824;5.644;2023-01-29T09:27:21;102167.78;;;0.86;69.52
36248;BME280;22287;50.824;5.644;2023-01-29T09:29:48;102171.09;;;0.97;69.71
36248;BME280;22287;50.824;5.644;2023-01-29T09:32:15;102163.69;;;0.30;72.71
36248;BME280;22287;50.824;5.644;2023-01-29T09:35:02;102164.34;;;0.41;73.18
36248;BME280;22287;50.824;5.644;2023-01-29T09:37:29;102161.69;;;0.41;72.74
36248;BME280;22287;50.824;5.644;2023-01-29T09:39:56;102173.41;;;0.74;71.82
36248;BME280;22287;50.824;5.644;2023-01-29T09:45:22;102168.78;;;0.82;71.75
36248;BME280;22287;50.824;5.644;2023-01-29T09:48:09;102154.78;;;0.74;69.97
36248;BME280;22287;50.824;5.644;2023-01-29T09:50:52;102158.34;;;0.73;72.02
36248;BME280;22287;50.824;5.644;2023-01-29T09:53:41;102162.63;;;1.18;69.90
36248;BME280;22287;50.824;5.644;2023-01-29T09:56:24;102160.56;;;0.93;71.21
36248;BME280;22287;50.824;5.644;2023-01-29T09:59:10;102150.34;;;1.13;70.36
36248;BME280;22287;50.824;5.644;2023-01-29T10:02:09;102148.50;;;1.15;71.16
36248;BME280;22287;50.824;5.644;2023-01-29T10:08:11;102147.81;;;1.07;71.43
36248;BME280;22287;50.824;5.644;2023-01-29T10:11:20;102147.56;;;1.16;70.97
36248;BME280;22287;50.824;5.644;2023-01-29T10:25:19;102127.84;;;1.25;71.56
36248;BME280;22287;50.824;5.644;2023-01-29T10:27:52;102137.34;;;1.70;69.80
36248;BME280;22287;50.824;5.644;2023-01-29T10:30:26;102132.81;;;1.73;68.86
36248;BME280;22287;50.824;5.644;2023-01-29T10:32:54;102130.25;;;2.03;68.86
36248;BME280;22287;50.824;5.644;2023-01-29T10:35:23;102131.16;;;1.69;68.93
36248;BME280;22287;50.824;5.644;2023-01-29T10:41:43;102112.59;;;1.99;69.51
36248;BME280;22287;50.824;5.644;2023-01-29T10:47:03;102103.19;;;2.16;68.62
36248;BME280;22287;50.824;5.644;2023-01-29T10:52:31;102101.00;;;1.34;71.28
36248;BME280;22287;50.824;5.644;2023-01-29T11:00:45;102080.38;;;1.06;74.05
36248;BME280;22287;50.824;5.644;2023-01-29T11:03:28;102076.28;;;1.62;72.37
36248;BME280;22287;50.824;5.644;2023-01-29T11:06:18;102072.22;;;1.80;71.04
36248;BME280;22287;50.824;5.644;2023-01-29T11:08:58;102066.56;;;1.92;70.06
36248;BME280;22287;50.824;5.644;2023-01-29T11:11:42;102068.72;;;1.46;71.44
36248;BME280;22287;50.824;5.644;2023-01-29T11:17:19;102056.22;;;2.12;71.54
36248;BME280;22287;50.824;5.644;2023-01-29T11:19:48;102053.63;;;2.38;70.19
36248;BME280;22287;50.824;5.644;2023-01-29T11:22:27;102050.22;;;1.72;72.50
36248;BME280;22287;50.824;5.644;2023-01-29T11:25:16;102052.91;;;1.72;73.18
36248;BME280;22287;50.824;5.644;2023-01-29T11:27:46;102061.78;;;2.03;71.56
36248;BME280;22287;50.824;5.644;2023-01-29T11:30:24;102049.69;;;1.92;72.76
36248;BME280;22287;50.824;5.644;2023-01-29T11:35:44;102043.66;;;1.53;73.70
36248;BME280;22287;50.824;5.644;2023-01-29T11:38:27;102047.00;;;1.61;74.30
36248;BME280;22287;50.824;5.644;2023-01-29T11:41:15;102033.91;;;1.84;73.87
36248;BME280;22287;50.824;5.644;2023-01-29T11:44:17;102032.94;;;1.87;72.54
36248;BME280;22287;50.824;5.644;2023-01-29T11:47:10;102038.78;;;1.99;72.44
36248;BME280;22287;50.824;5.644;2023-01-29T11:49:38;102038.69;;;1.71;73.62
36248;BME280;22287;50.824;5.644;2023-01-29T11:52:09;102033.84;;;1.87;73.48
36248;BME280;22287;50.824;5.644;2023-01-29T11:57:45;102012.34;;;1.93;73.64
36248;BME280;22287;50.824;5.644;2023-01-29T12:05:25;102015.63;;;2.30;71.99
36248;BME280;22287;50.824;5.644;2023-01-29T12:07:55;102000.78;;;2.79;71.23
36248;BME280;22287;50.824;5.644;2023-01-29T12:10:39;101988.81;;;2.35;72.27
36248;BME280;22287;50.824;5.644;2023-01-29T12:15:37;101973.50;;;2.42;71.65
36248;BME280;22287;50.824;5.644;2023-01-29T12:18:12;101971.34;;;2.25;72.99
36248;BME280;22287;50.824;5.644;2023-01-29T12:20:48;101974.03;;;2.25;73.00
36248;BME280;22287;50.824;5.644;2023-01-29T12:24:00;101957.03;;;2.00;74.47
36248;BME280;22287;50.824;5.644;2023-01-29T12:26:35;101959.94;;;1.92;74.30
36248;BME280;22287;50.824;5.644;2023-01-29T12:32:26;101929.84;;;3.21;70.91
36248;BME280;22287;50.824;5.644;2023-01-29T12:37:53;101921.34;;;3.10;70.62
36248;BME280;22287;50.824;5.644;2023-01-29T12:40:27;101914.50;;;3.03;71.05
36248;BME280;22287;50.824;5.644;2023-01-29T12:43:02;101909.06;;;2.80;72.20
36248;BME280;22287;50.824;5.644;2023-01-29T12:45:31;101905.69;;;2.75;71.75
36248;BME280;22287;50.824;5.644;2023-01-29T12:48:01;101893.59;;;2.65;72.10
36248;BME280;22287;50.824;5.644;2023-01-29T12:50:45;101889.63;;;3.01;71.84
36248;BME280;22287;50.824;5.644;2023-01-29T12:55:49;101880.25;;;3.14;70.95
36248;BME280;22287;50.824;5.644;2023-01-29T12:58:24;101879.50;;;2.86;71.81
36248;BME280;22287;50.824;5.644;2023-01-29T13:00:56;101864.31;;;3.36;71.07
36248;BME280;22287;50.824;5.644;2023-01-29T13:03:58;101850.13;;;2.86;72.86
36248;BME280;22287;50.824;5.644;2023-01-29T13:06:48;101854.75;;;3.06;71.84
36248;BME280;22287;50.824;5.644;2023-01-29T13:09:21;101846.88;;;2.76;72.84
36248;BME280;22287;50.824;5.644;2023-01-29T13:12:02;101839.44;;;3.11;72.08
36248;BME280;22287;50.824;5.644;2023-01-29T13:17:18;101830.34;;;2.67;72.21
36248;BME280;22287;50.824;5.644;2023-01-29T13:19:50;101833.72;;;2.96;72.06
36248;BME280;22287;50.824;5.644;2023-01-29T13:22:26;101836.88;;;2.83;72.04
36248;BME280;22287;50.824;5.644;2023-01-29T13:24:55;101832.00;;;3.19;72.13
36248;BME280;22287;50.824;5.644;2023-01-29T13:27:33;101824.69;;;3.24;71.64
36248;BME280;22287;50.824;5.644;2023-01-29T13:30:00;101820.19;;;3.26;71.69
36248;BME280;22287;50.824;5.644;2023-01-29T13:32:30;101807.63;;;3.28;71.60
36248;BME280;22287;50.824;5.644;2023-01-29T13:35:01;101798.72;;;3.04;71.87
36248;BME280;22287;50.824;5.644;2023-01-29T13:37:32;101795.13;;;3.05;72.65
36248;BME280;22287;50.824;5.644;2023-01-29T13:40:03;101798.59;;;3.07;72.85
36248;BME280;22287;50.824;5.644;2023-01-29T13:42:45;101794.53;;;2.97;72.60
36248;BME280;22287;50.824;5.644;2023-01-29T13:45:34;101798.63;;;2.82;72.89
36248;BME280;22287;50.824;5.644;2023-01-29T13:48:11;101798.81;;;3.01;72.65
36248;BME280;22287;50.824;5.644;2023-01-29T13:50:46;101798.34;;;2.90;72.50
36248;BME280;22287;50.824;5.644;2023-01-29T13:53:25;101793.94;;;2.89;71.92
36248;BME280;22287;50.824;5.644;2023-01-29T13:55:52;101797.53;;;2.88;73.18
36248;BME280;22287;50.824;5.644;2023-01-29T14:00:59;101794.50;;;3.45;70.85
36248;BME280;22287;50.824;5.644;2023-01-29T14:06:01;101796.69;;;3.11;71.47
36248;BME280;22287;50.824;5.644;2023-01-29T14:13:44;101807.47;;;2.84;71.83
36248;BME280;22287;50.824;5.644;2023-01-29T14:18:55;101801.06;;;3.36;70.32
36248;BME280;22287;50.824;5.644;2023-01-29T14:21:31;101796.97;;;3.49;69.23
36248;BME280;22287;50.824;5.644;2023-01-29T14:24:22;101806.63;;;3.30;69.93
36248;BME280;22287;50.824;5.644;2023-01-29T14:27:19;101811.47;;;2.96;71.15
36248;BME280;22287;50.824;5.644;2023-01-29T14:29:47;101805.88;;;3.27;69.81
36248;BME280;22287;50.824;5.644;2023-01-29T14:32:20;101806.63;;;3.30;70.69
36248;BME280;22287;50.824;5.644;2023-01-29T14:35:00;101801.00;;;2.90;71.32
36248;BME280;22287;50.824;5.644;2023-01-29T14:42:50;101806.25;;;2.68;70.87
36248;BME280;22287;50.824;5.644;2023-01-29T14:45:32;101797.94;;;2.77;71.26
36248;BME280;22287;50.824;5.644;2023-01-29T14:53:23;101791.97;;;2.94;71.18
36248;BME280;22287;50.824;5.644;2023-01-29T14:56:13;101798.09;;;2.73;71.48
36248;BME280;22287;50.824;5.644;2023-01-29T14:58:47;101796.06;;;2.79;71.22
36248;BME280;22287;50.824;5.644;2023-01-29T15:09:16;101800.69;;;2.99;71.38
36248;BME280;22287;50.824;5.644;2023-01-29T15:11:57;101803.81;;;2.87;71.24
36248;BME280;22287;50.824;5.644;2023-01-29T15:14:35;101802.59;;;2.95;71.54
36248;BME280;22287;50.824;5.644;2023-01-29T15:24:46;101778.72;;;2.17;73.60
36248;BME280;22287;50.824;5.644;2023-01-29T15:27:18;101775.59;;;2.04;74.14
36248;BME280;22287;50.824;5.644;2023-01-29T15:29:50;101773.53;;;2.12;74.65
36248;BME280;22287;50.824;5.644;2023-01-29T15:32:31;101773.00;;;2.27;73.71
36248;BME280;22287;50.824;5.644;2023-01-29T15:34:59;101772.41;;;2.70;72.35
36248;BME280;22287;50.824;5.644;2023-01-29T15:37:32;101766.56;;;2.84;71.54
36248;BME280;22287;50.824;5.644;2023-01-29T15:40:00;101776.97;;;2.67;71.71
36248;BME280;22287;50.824;5.644;2023-01-29T15:42:28;101773.91;;;2.77;71.30
36248;BME280;22287;50.824;5.644;2023-01-29T15:44:55;101771.19;;;2.79;71.29
36248;BME280;22287;50.824;5.644;2023-01-29T15:47:26;101758.53;;;2.84;71.12
36248;BME280;22287;50.824;5.644;2023-01-29T15:49:55;101752.03;;;2.68;71.47
36248;BME280;22287;50.824;5.644;2023-01-29T15:52:26;101754.94;;;2.85;71.23
36248;BME280;22287;50.824;5.644;2023-01-29T15:54:56;101749.88;;;2.53;71.86
36248;BME280;22287;50.824;5.644;2023-01-29T15:57:38;101747.78;;;2.62;71.41
36248;BME280;22287;50.824;5.644;2023-01-29T16:00:21;101742.84;;;2.75;71.57
36248;BME280;22287;50.824;5.644;2023-01-29T16:02:48;101739.25;;;2.99;70.60
36248;BME280;22287;50.824;5.644;2023-01-29T16:05:17;101736.75;;;2.71;71.40
36248;BME280;22287;50.824;5.644;2023-01-29T16:08:00;101740.09;;;2.53;72.16
36248;BME280;22287;50.824;5.644;2023-01-29T16:10:55;101726.84;;;2.25;73.29
36248;BME280;22287;50.824;5.644;2023-01-29T16:13:28;101730.88;;;2.12;73.02
36248;BME280;22287;50.824;5.644;2023-01-29T16:15:58;101726.94;;;1.98;74.08
36248;BME280;22287;50.824;5.644;2023-01-29T16:18:38;101732.38;;;2.46;72.84